sensor_id;sensor_type;location;lat;lon;timestamp;pressure;altitude;pressure_sealevel;temperature;humidity
5988;BME280;3021;51.000;6.980;2023-02-17T00:00:22;67578.56;;;11.49;100.00
5988;BME280;3021;51.000;6.980;2023-02-17T00:02:48;67580.44;;;11.53;100.00
5988;BME280;3021;51.000;6.980;2023-02-17T00:05:14;67573.50;;;11.47;100.00
5988;BME280;3021;51.000;6.980;2023-02-17T00:07:39;67580.59;;;11.56;100.00
5988;BME280;3021;51.000;6.980;2023-02-17T00:10:05;67594.63;;;11.61;100.00
5988;BME280;3021;51.000;6.980;2023-02-17T00:12:31;67594.03;;;11.61;100.00
5988;BME280;3021;51.000;6.980;2023-02-17T00:14:56;67598.22;;;11.67;100.00
5988;BME280;3021;51.000;6.980;2023-02-17T00:17:22;67595.47;;;11.67;100.00
5988;BME280;3021;51.000;6.980;2023-02-17T00:19:47;67599.97;;;11.68;100.00
5988;BME280;3021;51.000;6.980;2023-02-17T00:22:12;67604.03;;;11.72;100.00
5988;BME280;3021;51.000;6.980;2023-02-17T00:24:39;67616.16;;;11.83;100.00
5988;BME280;3021;51.000;6.980;2023-02-17T00:27:05;67613.25;;;11.80;100.00
5988;BME280;3021;51.000;6.980;2023-02-17T00:29:31;67615.00;;;11.82;100.00
5988;BME280;3021;51.000;6.980;2023-02-17T00:31:56;67606.91;;;11.74;100.00
5988;BME280;3021;51.000;6.980;2023-02-17T00:34:22;67588.56;;;11.61;100.00
5988;BME280;3021;51.000;6.980;2023-02-17T00:36:48;67605.75;;;11.73;100.00
5988;BME280;3021;51.000;6.980;2023-02-17T00:39:14;67610.38;;;11.78;100.00
5988;BME280;3021;51.000;6.980;2023-02-17T00:41:41;67604.44;;;11.70;100.00
5988;BME280;3021;51.000;6.980;2023-02-17T00:44:06;67585.50;;;11.55;100.00
5988;BME280;3021;51.000;6.980;2023-02-17T00:46:32;67596.66;;;11.68;100.00
5988;BME280;3021;51.000;6.980;2023-02-17T00:48:57;67589.69;;;11.62;100.00
5988;BME280;3021;51.000;6.980;2023-02-17T00:51:23;67604.44;;;11.70;100.00
5988;BME280;3021;51.000;6.980;2023-02-17T00:53:49;67586.66;;;11.56;100.00
5988;BME280;3021;51.000;6.980;2023-02-17T00:56:14;67593.03;;;11.62;100.00
5988;BME280;3021;51.000;6.980;2023-02-17T00:58:40;67601.69;;;11.70;100.00
5988;BME280;3021;51.000;6.980;2023-02-17T01:01:09;67595.19;;;11.62;100.00
5988;BME280;3021;51.000;6.980;2023-02-17T01:03:34;67611.41;;;11.76;100.00
5988;BME280;3021;51.000;6.980;2023-02-17T01:06:08;67594.63;;;11.61;100.00
5988;BME280;3021;51.000;6.980;2023-02-17T01:08:34;67589.56;;;11.59;100.00
5988;BME280;3021;51.000;6.980;2023-02-17T01:10:59;67598.38;;;11.69;100.00
5988;BME280;3021;51.000;6.980;2023-02-17T01:13:25;67598.81;;;11.67;100.00
5988;BME280;3021;51.000;6.980;2023-02-17T01:15:52;67597.66;;;11.66;100.00
5988;BME280;3021;51.000;6.980;2023-02-17T01:18:20;67594.91;;;11.66;100.00
5988;BME280;3021;51.000;6.980;2023-02-17T01:20:46;67599.25;;;11.65;100.00
5988;BME280;3021;51.000;6.980;2023-02-17T01:23:12;67594.19;;;11.63;100.00
5988;BME280;3021;51.000;6.980;2023-02-17T01:25:39;67596.50;;;11.65;100.00
5988;BME280;3021;51.000;6.980;2023-02-17T01:28:05;67592.44;;;11.62;100.00
5988;BME280;3021;51.000;6.980;2023-02-17T01:30:31;67591.88;;;11.61;100.00
5988;BME280;3021;51.000;6.980;2023-02-17T01:32:56;67590.69;;;11.60;100.00
5988;BME280;3021;51.000;6.980;2023-02-17T01:35:22;67591.16;;;11.58;100.00
5988;BME280;3021;51.000;6.980;2023-02-17T01:37:47;67590.56;;;11.57;100.00
5988;BME280;3021;51.000;6.980;2023-02-17T01:40:14;67595.94;;;11.65;100.00
5988;BME280;3021;51.000;6.980;2023-02-17T01:42:39;67583.91;;;11.56;100.00
5988;BME280;3021;51.000;6.980;2023-02-17T01:50:20;67589.69;;;11.62;100.00
5988;BME280;3021;51.000;6.980;2023-02-17T01:52:46;67602.28;;;11.70;100.00
5988;BME280;3021;51.000;6.980;2023-02-17T01:55:15;67612.13;;;11.79;100.00
5988;BME280;3021;51.000;6.980;2023-02-17T01:57:45;67598.22;;;11.67;100.00
5988;BME280;3021;51.000;6.980;2023-02-17T02:00:12;67595.34;;;11.64;100.00
5988;BME280;3021;51.000;6.980;2023-02-17T02:02:40;67600.09;;;11.71;100.00
5988;BME280;3021;51.000;6.980;2023-02-17T02:05:06;67614.41;;;11.81;100.00
5988;BME280;3021;51.000;6.980;2023-02-17T02:07:34;67608.06;;;11.75;100.00
5988;BME280;3021;51.000;6.980;2023-02-17T02:10:01;67590.13;;;11.59;100.00
5988;BME280;3021;51.000;6.980;2023-02-17T02:12:29;67601.53;;;11.67;100.00
5988;BME280;3021;51.000;6.980;2023-02-17T02:14:59;67605.75;;;11.73;100.00
5988;BME280;3021;51.000;6.980;2023-02-17T02:17:48;67599.81;;;11.66;100.00
5988;BME280;3021;51.000;6.980;2023-02-17T02:23:12;67570.75;;;11.47;100.00
5988;BME280;3021;51.000;6.980;2023-02-17T02:34:15;67596.50;;;11.65;100.00
5988;BME280;3021;51.000;6.980;2023-02-17T02:39:20;67605.75;;;11.73;100.00
5988;BME280;3021;51.000;6.980;2023-02-17T02:41:58;67614.88;;;11.79;100.00
5988;BME280;3021;51.000;6.980;2023-02-17T02:44:25;67617.88;;;11.84;100.00
5988;BME280;3021;51.000;6.980;2023-02-17T02:50:12;67601.13;;;11.69;100.00
5988;BME280;3021;51.000;6.980;2023-02-17T02:52:57;67598.22;;;11.67;100.00
5988;BME280;3021;51.000;6.980;2023-02-17T02:55:41;67602.41;;;11.73;100.00
5988;BME280;3021;51.000;6.980;2023-02-17T02:58:39;67599.53;;;11.70;100.00
5988;BME280;3021;51.000;6.980;2023-02-17T03:01:21;67600.53;;;11.69;100.00
5988;BME280;3021;51.000;6.980;2023-02-17T03:08:53;67603.88;;;11.69;100.00
5988;BME280;3021;51.000;6.980;2023-02-17T03:11:23;67610.25;;;11.75;100.00
5988;BME280;3021;51.000;6.980;2023-02-17T03:14:07;67602.28;;;11.70;100.00
5988;BME280;3021;51.000;6.980;2023-02-17T03:16:34;67606.91;;;11.74;100.00
5988;BME280;3021;51.000;6.980;2023-02-17T03:19:00;67606.78;;;11.72;100.00
5988;BME280;3021;51.000;6.980;2023-02-17T03:21:32;67605.75;;;11.73;100.00
5988;BME280;3021;51.000;6.980;2023-02-17T03:23:59;67585.81;;;11.61;100.00
5988;BME280;3021;51.000;6.980;2023-02-17T03:26:24;67603.44;;;11.71;100.00
5988;BME280;3021;51.000;6.980;2023-02-17T03:28:49;67605.59;;;11.71;100.00
5988;BME280;3021;51.000;6.980;2023-02-17T03:31:15;67604.44;;;11.70;100.00
5988;BME280;3021;51.000;6.980;2023-02-17T03:33:40;67605.75;;;11.73;100.00
5988;BME280;3021;51.000;6.980;2023-02-17T03:36:06;67604.75;;;11.75;100.00
5988;BME280;3021;51.000;6.980;2023-02-17T03:38:31;67606.31;;;11.74;100.00
5988;BME280;3021;51.000;6.980;2023-02-17T03:40:56;67605.91;;;11.76;100.00
5988;BME280;3021;51.000;6.980;2023-02-17T03:43:22;67600.97;;;11.67;100.00
5988;BME280;3021;51.000;6.980;2023-02-17T03:45:47;67600.69;;;11.71;100.00
5988;BME280;3021;51.000;6.980;2023-02-17T03:48:12;67602.84;;;11.71;100.00
5988;BME280;3021;51.000;6.980;2023-02-17T03:50:37;67604.03;;;11.72;100.00
5988;BME280;3021;51.000;6.980;2023-02-17T03:53:03;67601.69;;;11.70;100.00
5988;BME280;3021;51.000;6.980;2023-02-17T03:55:29;67604.59;;;11.72;100.00
5988;BME280;3021;51.000;6.980;2023-02-17T03:57:55;67616.59;;;11.81;100.00
5988;BME280;3021;51.000;6.980;2023-02-17T04:00:20;67609.22;;;11.76;100.00
5988;BME280;3021;51.000;6.980;2023-02-17T04:02:46;67611.53;;;11.79;100.00
5988;BME280;3021;51.000;6.980;2023-02-17T04:05:11;67616.16;;;11.83;100.00
5988;BME280;3021;51.000;6.980;2023-02-17T04:07:37;67603.88;;;11.69;100.00
5988;BME280;3021;51.000;6.980;2023-02-17T04:10:02;67614.28;;;11.79;100.00
5988;BME280;3021;51.000;6.980;2023-02-17T04:12:27;67598.94;;;11.70;100.00
5988;BME280;3021;51.000;6.980;2023-02-17T04:14:53;67605.16;;;11.73;100.00
5988;BME280;3021;51.000;6.980;2023-02-17T04:17:18;67612.69;;;11.80;100.00
5988;BME280;3021;51.000;6.980;2023-02-17T04:19:43;67609.78;;;11.77;100.00
5988;BME280;3021;51.000;6.980;2023-02-17T04:22:09;67593.59;;;11.63;100.00
5988;BME280;3021;51.000;6.980;2023-02-17T04:24:37;67596.66;;;11.68;100.00
5988;BME280;3021;51.000;6.980;2023-02-17T04:27:03;67597.78;;;11.69;100.00
5988;BME280;3021;51.000;6.980;2023-02-17T04:29:30;67605.75;;;11.73;100.00
5988;BME280;3021;51.000;6.980;2023-02-17T04:31:56;67606.31;;;11.74;100.00
5988;BME280;3021;51.000;6.980;2023-02-17T04:34:21;67610.50;;;11.80;100.00
5988;BME280;3021;51.000;6.980;2023-02-17T04:36:46;67604.75;;;11.75;100.00
5988;BME280;3021;51.000;6.980;2023-02-17T04:39:12;67594.91;;;11.66;100.00
5988;BME280;3021;51.000;6.980;2023-02-17T04:41:37;67598.81;;;11.67;100.00
5988;BME280;3021;51.000;6.980;2023-02-17T04:44:02;67600.53;;;11.69;100.00
5988;BME280;3021;51.000;6.980;2023-02-17T04:46:27;67617.16;;;11.81;100.00
5988;BME280;3021;51.000;6.980;2023-02-17T04:48:53;67609.78;;;11.77;100.00
5988;BME280;3021;51.000;6.980;2023-02-17T04:51:19;67597.66;;;11.66;100.00
5988;BME280;3021;51.000;6.980;2023-02-17T04:53:44;67604.59;;;11.72;100.00
5988;BME280;3021;51.000;6.980;2023-02-17T04:56:09;67606.47;;;11.76;100.00
5988;BME280;3021;51.000;6.980;2023-02-17T04:58:35;67615.59;;;11.82;100.00
5988;BME280;3021;51.000;6.980;2023-02-17T05:01:00;67608.78;;;11.79;100.00
5988;BME280;3021;51.000;6.980;2023-02-17T05:03:25;67614.41;;;11.81;100.00
5988;BME280;3021;51.000;6.980;2023-02-17T05:05:51;67617.75;;;11.82;100.00
5988;BME280;3021;51.000;6.980;2023-02-17T05:08:16;67622.97;;;11.86;100.00
5988;BME280;3021;51.000;6.980;2023-02-17T05:10:42;67614.41;;;11.81;100.00
5988;BME280;3021;51.000;6.980;2023-02-17T05:13:07;67617.31;;;11.84;100.00
5988;BME280;3021;51.000;6.980;2023-02-17T05:15:32;67616.00;;;11.80;100.00
5988;BME280;3021;51.000;6.980;2023-02-17T05:17:57;67597.66;;;11.66;100.00
5988;BME280;3021;51.000;6.980;2023-02-17T05:20:23;67612.53;;;11.77;100.00
5988;BME280;3021;51.000;6.980;2023-02-17T05:22:48;67608.06;;;11.75;100.00
5988;BME280;3021;51.000;6.980;2023-02-17T05:25:14;67604.59;;;11.72;100.00
5988;BME280;3021;51.000;6.980;2023-02-17T05:27:39;67614.41;;;11.81;100.00
5988;BME280;3021;51.000;6.980;2023-02-17T05:30:05;67611.97;;;11.76;100.00
5988;BME280;3021;51.000;6.980;2023-02-17T05:32:30;67614.28;;;11.79;100.00
5988;BME280;3021;51.000;6.980;2023-02-17T05:34:56;67618.47;;;11.85;100.00
5988;BME280;3021;51.000;6.980;2023-02-17T05:37:21;67631.09;;;11.93;100.00
5988;BME280;3021;51.000;6.980;2023-02-17T05:39:46;67624.25;;;11.90;100.00
5988;BME280;3021;51.000;6.980;2023-02-17T05:42:12;67617.88;;;11.84;100.00
5988;BME280;3021;51.000;6.980;2023-02-17T05:44:37;67609.38;;;11.79;100.00
5988;BME280;3021;51.000;6.980;2023-02-17T05:47:02;67620.63;;;11.84;100.00
5988;BME280;3021;51.000;6.980;2023-02-17T05:49:28;67620.78;;;11.87;100.00
5988;BME280;3021;51.000;6.980;2023-02-17T05:51:53;67615.59;;;11.82;100.00
5988;BME280;3021;51.000;6.980;2023-02-17T05:54:18;67621.94;;;11.88;100.00
5988;BME280;3021;51.000;6.980;2023-02-17T05:56:44;67608.22;;;11.78;100.00
5988;BME280;3021;51.000;6.980;2023-02-17T05:59:09;67607.50;;;11.75;100.00
5988;BME280;3021;51.000;6.980;2023-02-17T06:01:34;67597.06;;;11.66;100.00
5988;BME280;3021;51.000;6.980;2023-02-17T06:04:00;67602.84;;;11.71;100.00
5988;BME280;3021;51.000;6.980;2023-02-17T06:06:25;67614.00;;;11.83;100.00
5988;BME280;3021;51.000;6.980;2023-02-17T06:08:51;67620.63;;;11.84;100.00
5988;BME280;3021;51.000;6.980;2023-02-17T06:11:16;67619.78;;;11.88;100.00
5988;BME280;3021;51.000;6.980;2023-02-17T06:13:41;67619.78;;;11.88;100.00
5988;BME280;3021;51.000;6.980;2023-02-17T06:16:07;67615.59;;;11.82;100.00
5988;BME280;3021;51.000;6.980;2023-02-17T06:18:32;67621.81;;;11.85;100.00
5988;BME280;3021;51.000;6.980;2023-02-17T06:20:58;67610.94;;;11.78;100.00
5988;BME280;3021;51.000;6.980;2023-02-17T06:23:24;67616.16;;;11.83;100.00
5988;BME280;3021;51.000;6.980;2023-02-17T06:25:49;67624.69;;;11.88;100.00
5988;BME280;3021;51.000;6.980;2023-02-17T06:28:15;67626.00;;;11.91;100.00
5988;BME280;3021;51.000;6.980;2023-02-17T06:30:40;67620.38;;;11.89;100.00
5988;BME280;3021;51.000;6.980;2023-02-17T06:33:06;67618.03;;;11.87;100.00
5988;BME280;3021;51.000;6.980;2023-02-17T06:35:31;67626.16;;;11.94;100.00
5988;BME280;3021;51.000;6.980;2023-02-17T06:37:56;67631.94;;;11.99;100.00
5988;BME280;3021;51.000;6.980;2023-02-17T06:40:22;67615.00;;;11.82;100.00
5988;BME280;3021;51.000;6.980;2023-02-17T06:42:47;67614.00;;;11.83;100.00
5988;BME280;3021;51.000;6.980;2023-02-17T06:45:13;67630.63;;;11.96;100.00
5988;BME280;3021;51.000;6.980;2023-02-17T06:47:38;67631.09;;;11.93;100.00
5988;BME280;3021;51.000;6.980;2023-02-17T06:50:04;67611.53;;;11.79;100.00
5988;BME280;3021;51.000;6.980;2023-02-17T06:52:29;67615.00;;;11.82;100.00
5988;BME280;3021;51.000;6.980;2023-02-17T06:54:55;67614.41;;;11.81;100.00
5988;BME280;3021;51.000;6.980;2023-02-17T06:57:20;67613.25;;;11.80;100.00
5988;BME280;3021;51.000;6.980;2023-02-17T06:59:45;67623.25;;;11.91;100.00
5988;BME280;3021;51.000;6.980;2023-02-17T07:02:12;67623.25;;;11.91;100.00
5988;BME280;3021;51.000;6.980;2023-02-17T07:04:41;67636.00;;;12.03;100.00
5988;BME280;3021;51.000;6.980;2023-02-17T09:58:42;68085.72;;;16.02;100.00
5988;BME280;3021;51.000;6.980;2023-02-17T10:01:20;68152.94;;;16.59;100.00
5988;BME280;3021;51.000;6.980;2023-02-17T10:03:51;68179.78;;;16.86;100.00
5988;BME280;3021;51.000;6.980;2023-02-17T10:06:25;68208.28;;;17.11;100.00
5988;BME280;3021;51.000;6.980;2023-02-17T10:09:03;68157.00;;;16.63;100.00
5988;BME280;3021;51.000;6.980;2023-02-17T10:14:33;68313.47;;;18.04;100.00
5988;BME280;3021;51.000;6.980;2023-02-17T10:17:09;68318.69;;;18.09;100.00
5988;BME280;3021;51.000;6.980;2023-02-17T10:19:46;68311.03;;;18.00;100.00
5988;BME280;3021;51.000;6.980;2023-02-17T10:22:20;68284.38;;;17.78;100.00
5988;BME280;3021;51.000;6.980;2023-02-17T10:24:45;68267.53;;;17.64;100.00
5988;BME280;3021;51.000;6.980;2023-02-17T10:38:51;68242.53;;;17.41;100.00
5988;BME280;3021;51.000;6.980;2023-02-17T10:41:26;68281.38;;;17.73;100.00
5988;BME280;3021;51.000;6.980;2023-02-17T10:43:51;68317.66;;;18.10;100.00
5988;BME280;3021;51.000;6.980;2023-02-17T10:46:20;68397.22;;;18.78;100.00
5988;BME280;3021;51.000;6.980;2023-02-17T10:48:51;68393.16;;;18.75;100.00
5988;BME280;3021;51.000;6.980;2023-02-17T10:51:24;68404.19;;;18.85;100.00
5988;BME280;3021;51.000;6.980;2023-02-17T10:53:56;68345.00;;;18.35;100.00
5988;BME280;3021;51.000;6.980;2023-02-17T10:56:40;68375.84;;;18.62;100.00
5988;BME280;3021;51.000;6.980;2023-02-17T10:59:30;68374.66;;;18.61;100.00
5988;BME280;3021;51.000;6.980;2023-02-17T11:04:55;68202.03;;;17.08;100.00
5988;BME280;3021;51.000;6.980;2023-02-17T11:07:44;68182.84;;;16.91;100.00
5988;BME280;3021;51.000;6.980;2023-02-17T11:10:23;68161.22;;;16.69;100.00
5988;BME280;3021;51.000;6.980;2023-02-17T11:12:50;68187.50;;;16.95;100.00
5988;BME280;3021;51.000;6.980;2023-02-17T11:15:22;68189.09;;;16.94;100.00
5988;BME280;3021;51.000;6.980;2023-02-17T11:17:49;68154.38;;;16.66;100.00
5988;BME280;3021;51.000;6.980;2023-02-17T11:22:43;68130.28;;;16.39;100.00
5988;BME280;3021;51.000;6.980;2023-02-17T11:25:32;68150.75;;;16.60;100.00
5988;BME280;3021;51.000;6.980;2023-02-17T11:28:01;68157.72;;;16.66;100.00
5988;BME280;3021;51.000;6.980;2023-02-17T11:30:29;68145.97;;;16.53;100.00
5988;BME280;3021;51.000;6.980;2023-02-17T11:32:55;68124.06;;;16.36;100.00
5988;BME280;3021;51.000;6.980;2023-02-17T11:35:22;68128.69;;;16.40;100.00
5988;BME280;3021;51.000;6.980;2023-02-17T11:37:48;68129.28;;;16.41;100.00
5988;BME280;3021;51.000;6.980;2023-02-17T11:40:24;68102.56;;;16.17;100.00
5988;BME280;3021;51.000;6.980;2023-02-17T11:43:00;68125.66;;;16.35;100.00
5988;BME280;3021;51.000;6.980;2023-02-17T11:45:38;68144.34;;;16.54;100.00
5988;BME280;3021;51.000;6.980;2023-02-17T11:51:17;68223.97;;;17.25;100.00
5988;BME280;3021;51.000;6.980;2023-02-17T11:54:04;68208.84;;;17.12;100.00
5988;BME280;3021;51.000;6.980;2023-02-17T11:56:37;68162.34;;;16.70;100.00
5988;BME280;3021;51.000;6.980;2023-02-17T12:04:24;68211.75;;;17.14;100.00
5988;BME280;3021;51.000;6.980;2023-02-17T12:20:32;68212.94;;;17.15;100.00
5988;BME280;3021;51.000;6.980;2023-02-17T12:26:04;68228.63;;;17.29;100.00
5988;BME280;3021;51.000;6.980;2023-02-17T12:28:46;68221.50;;;17.20;100.00
5988;BME280;3021;51.000;6.980;2023-02-17T12:33:58;68192.59;;;16.97;100.00
5988;BME280;3021;51.000;6.980;2023-02-17T12:36:32;68214.81;;;17.19;100.00
5988;BME280;3021;51.000;6.980;2023-02-17T12:41:42;68250.69;;;17.49;100.00
5988;BME280;3021;51.000;6.980;2023-02-17T12:44:22;68220.47;;;17.22;100.00
5988;BME280;3021;51.000;6.980;2023-02-17T12:46:52;68226.84;;;17.27;100.00
5988;BME280;3021;51.000;6.980;2023-02-17T12:49:34;68194.31;;;16.99;100.00
5988;BME280;3021;51.000;6.980;2023-02-17T12:52:14;68184.59;;;16.92;100.00
5988;BME280;3021;51.000;6.980;2023-02-17T12:54:56;68193.19;;;16.98;100.00
5988;BME280;3021;51.000;6.980;2023-02-17T12:57:33;68244.16;;;17.40;100.00
5988;BME280;3021;51.000;6.980;2023-02-17T13:00:13;68221.50;;;17.20;100.00
5988;BME280;3021;51.000;6.980;2023-02-17T13:02:41;68231.97;;;17.30;100.00
5988;BME280;3021;51.000;6.980;2023-02-17T13:05:21;68211.75;;;17.14;100.00
5988;BME280;3021;51.000;6.980;2023-02-17T13:10:28;68244.28;;;17.43;100.00
5988;BME280;3021;51.000;6.980;2023-02-17T13:12:59;68268.25;;;17.67;100.00
5988;BME280;3021;51.000;6.980;2023-02-17T13:15:30;68264.06;;;17.60;100.00
5988;BME280;3021;51.000;6.980;2023-02-17T13:18:01;68232.09;;;17.32;100.00
5988;BME280;3021;51.000;6.980;2023-02-17T13:20:52;68215.84;;;17.18;100.00
5988;BME280;3021;51.000;6.980;2023-02-17T13:23:39;68209.44;;;17.12;100.00
5988;BME280;3021;51.000;6.980;2023-02-17T13:28:47;68156.56;;;16.65;100.00
5988;BME280;3021;51.000;6.980;2023-02-17T13:31:20;68168.31;;;16.78;100.00
5988;BME280;3021;51.000;6.980;2023-02-17T13:33:53;68171.66;;;16.79;100.00
5988;BME280;3021;51.000;6.980;2023-02-17T13:36:33;68174.00;;;16.81;100.00
5988;BME280;3021;51.000;6.980;2023-02-17T13:39:44;68194.91;;;16.99;100.00
5988;BME280;3021;51.000;6.980;2023-02-17T13:41:50;68174.41;;;16.79;100.00
5988;BME280;3021;51.000;6.980;2023-02-17T13:44:31;68190.72;;;16.93;100.00
5988;BME280;3021;51.000;6.980;2023-02-17T13:47:04;68194.19;;;16.96;100.00
5988;BME280;3021;51.000;6.980;2023-02-17T13:49:32;68198.41;;;17.02;100.00
5988;BME280;3021;51.000;6.980;2023-02-17T13:52:21;68174.09;;;16.83;100.00
5988;BME280;3021;51.000;6.980;2023-02-17T13:54:55;68176.31;;;16.83;100.00
5988;BME280;3021;51.000;6.980;2023-02-17T14:00:04;68111.28;;;16.25;100.00
5988;BME280;3021;51.000;6.980;2023-02-17T14:02:29;68108.38;;;16.22;100.00
5988;BME280;3021;51.000;6.980;2023-02-17T14:04:55;68074.13;;;15.92;100.00
5988;BME280;3021;51.000;6.980;2023-02-17T14:07:20;68066.44;;;15.83;100.00
5988;BME280;3021;51.000;6.980;2023-02-17T14:09:52;68075.03;;;15.88;100.00
5988;BME280;3021;51.000;6.980;2023-02-17T14:12:21;68055.38;;;15.73;100.00
5988;BME280;3021;51.000;6.980;2023-02-17T14:14:47;68050.88;;;15.71;100.00
5988;BME280;3021;51.000;6.980;2023-02-17T14:17:33;68059.63;;;15.79;100.00
5988;BME280;3021;51.000;6.980;2023-02-17T14:19:59;68065.28;;;15.82;100.00
5988;BME280;3021;51.000;6.980;2023-02-17T14:22:32;68049.75;;;15.70;100.00
5988;BME280;3021;51.000;6.980;2023-02-17T14:25:04;68035.22;;;15.58;100.00
5988;BME280;3021;51.000;6.980;2023-02-17T14:27:45;68024.63;;;15.46;100.00
5988;BME280;3021;51.000;6.980;2023-02-17T14:30:26;68027.69;;;15.51;100.00
5988;BME280;3021;51.000;6.980;2023-02-17T14:35:51;68034.63;;;15.57;100.00
5988;BME280;3021;51.000;6.980;2023-02-17T14:38:29;68027.69;;;15.51;100.00
5988;BME280;3021;51.000;6.980;2023-02-17T14:40:59;68039.28;;;15.61;100.00
5988;BME280;3021;51.000;6.980;2023-02-17T14:43:25;68048.56;;;15.69;100.00
5988;BME280;3021;51.000;6.980;2023-02-17T14:45:51;68062.38;;;15.79;100.00
5988;BME280;3021;51.000;6.980;2023-02-17T14:48:16;68042.75;;;15.64;100.00
5988;BME280;3021;51.000;6.980;2023-02-17T14:50:42;68040.88;;;15.60;100.00
5988;BME280;3021;51.000;6.980;2023-02-17T14:55:52;68039.44;;;15.64;100.00
5988;BME280;3021;51.000;6.980;2023-02-17T14:58:22;68042.19;;;15.64;100.00
5988;BME280;3021;51.000;6.980;2023-02-17T15:00:48;68032.31;;;15.55;100.00
5988;BME280;3021;51.000;6.980;2023-02-17T15:03:14;68005.63;;;15.31;100.00
5988;BME280;3021;51.000;6.980;2023-02-17T15:05:40;68005.63;;;15.31;100.00
5988;BME280;3021;51.000;6.980;2023-02-17T15:08:09;68002.72;;;15.29;100.00
5988;BME280;3021;51.000;6.980;2023-02-17T15:10:36;68006.09;;;15.29;100.00
5988;BME280;3021;51.000;6.980;2023-02-17T15:13:04;67994.59;;;15.21;100.00
5988;BME280;3021;51.000;6.980;2023-02-17T15:15:29;67992.28;;;15.19;100.00
5988;BME280;3021;51.000;6.980;2023-02-17T15:17:55;67989.97;;;15.17;100.00
5988;BME280;3021;51.000;6.980;2023-02-17T15:20:20;67978.38;;;15.07;100.00
5988;BME280;3021;51.000;6.980;2023-02-17T15:22:45;67981.72;;;15.08;100.00
5988;BME280;3021;51.000;6.980;2023-02-17T15:25:16;67977.22;;;15.06;100.00
5988;BME280;3021;51.000;6.980;2023-02-17T15:27:42;67974.31;;;15.03;100.00
5988;BME280;3021;51.000;6.980;2023-02-17T15:30:20;67968.97;;;14.96;100.00
5988;BME280;3021;51.000;6.980;2023-02-17T15:32:46;67953.88;;;14.83;100.00
5988;BME280;3021;51.000;6.980;2023-02-17T15:35:17;67940.53;;;14.71;100.00
5988;BME280;3021;51.000;6.980;2023-02-17T15:37:43;67943.88;;;14.72;100.00
5988;BME280;3021;51.000;6.980;2023-02-17T15:40:25;67945.19;;;14.75;100.00
5988;BME280;3021;51.000;6.980;2023-02-17T15:42:55;67933.13;;;14.67;100.00
5988;BME280;3021;51.000;6.980;2023-02-17T15:45:22;67920.38;;;14.56;100.00
5988;BME280;3021;51.000;6.980;2023-02-17T15:47:49;67924.44;;;14.59;100.00
5988;BME280;3021;51.000;6.980;2023-02-17T15:50:18;67905.72;;;14.40;100.00
5988;BME280;3021;51.000;6.980;2023-02-17T15:52:50;67912.09;;;14.46;100.00
5988;BME280;3021;51.000;6.980;2023-02-17T15:55:17;67908.19;;;14.45;100.00
5988;BME280;3021;51.000;6.980;2023-02-17T15:57:48;67898.91;;;14.37;100.00
5988;BME280;3021;51.000;6.980;2023-02-17T16:00:17;67888.47;;;14.27;100.00
5988;BME280;3021;51.000;6.980;2023-02-17T16:02:44;67881.38;;;14.18;100.00
5988;BME280;3021;51.000;6.980;2023-02-17T16:05:11;67869.81;;;14.08;100.00
5988;BME280;3021;51.000;6.980;2023-02-17T16:07:37;67861.69;;;14.01;100.00
5988;BME280;3021;51.000;6.980;2023-02-17T16:10:03;67859.50;;;14.02;100.00
5988;BME280;3021;51.000;6.980;2023-02-17T16:12:29;67857.63;;;13.97;100.00
5988;BME280;3021;51.000;6.980;2023-02-17T16:14:55;67862.84;;;14.02;100.00
5988;BME280;3021;51.000;6.980;2023-02-17T16:17:21;67854.28;;;13.97;100.00
5988;BME280;3021;51.000;6.980;2023-02-17T16:19:47;67841.28;;;13.80;100.00
5988;BME280;3021;51.000;6.980;2023-02-17T16:22:13;67791.56;;;13.39;100.00
5988;BME280;3021;51.000;6.980;2023-02-17T16:24:38;67762.03;;;13.12;100.00
5988;BME280;3021;51.000;6.980;2023-02-17T16:27:05;67737.13;;;12.90;100.00
5988;BME280;3021;51.000;6.980;2023-02-17T16:29:33;67730.19;;;12.84;100.00
5988;BME280;3021;51.000;6.980;2023-02-17T16:32:00;67738.28;;;12.91;100.00
5988;BME280;3021;51.000;6.980;2023-02-17T16:34:25;67753.94;;;13.05;100.00
5988;BME280;3021;51.000;6.980;2023-02-17T16:36:52;67753.34;;;13.05;100.00
5988;BME280;3021;51.000;6.980;2023-02-17T16:39:20;67748.56;;;12.98;100.00
5988;BME280;3021;51.000;6.980;2023-02-17T16:41:46;67745.25;;;12.98;100.00
5988;BME280;3021;51.000;6.980;2023-02-17T16:44:13;67744.66;;;12.97;100.00
5988;BME280;3021;51.000;6.980;2023-02-17T16:46:45;67736.41;;;12.87;100.00
5988;BME280;3021;51.000;6.980;2023-02-17T16:49:20;67694.44;;;12.55;100.00
5988;BME280;3021;51.000;6.980;2023-02-17T16:51:47;67669.84;;;12.28;100.00
5988;BME280;3021;51.000;6.980;2023-02-17T16:54:15;67669.56;;;12.33;100.00
5988;BME280;3021;51.000;6.980;2023-02-17T16:56:44;67680.53;;;12.42;100.00
5988;BME280;3021;51.000;6.980;2023-02-17T16:59:15;67692.72;;;12.53;100.00
5988;BME280;3021;51.000;6.980;2023-02-17T17:01:41;67690.84;;;12.49;100.00
5988;BME280;3021;51.000;6.980;2023-02-17T17:04:06;67686.19;;;12.45;100.00
5988;BME280;3021;51.000;6.980;2023-02-17T17:06:33;67679.97;;;12.42;100.00
5988;BME280;3021;51.000;6.980;2023-02-17T17:08:59;67692.56;;;12.51;100.00
5988;BME280;3021;51.000;6.980;2023-02-17T17:11:25;67700.53;;;12.55;100.00
5988;BME280;3021;51.000;6.980;2023-02-17T17:13:52;67695.59;;;12.56;100.00
5988;BME280;3021;51.000;6.980;2023-02-17T17:16:27;67686.19;;;12.45;100.00
5988;BME280;3021;51.000;6.980;2023-02-17T17:18:55;67704.13;;;12.61;100.00
5988;BME280;3021;51.000;6.980;2023-02-17T17:21:20;67707.19;;;12.66;100.00
5988;BME280;3021;51.000;6.980;2023-02-17T17:23:46;67712.97;;;12.71;100.00
5988;BME280;3021;51.000;6.980;2023-02-17T17:26:32;67719.06;;;12.72;100.00
5988;BME280;3021;51.000;6.980;2023-02-17T17:28:58;67719.91;;;12.77;100.00
5988;BME280;3021;51.000;6.980;2023-02-17T17:31:25;67713.56;;;12.72;100.00
5988;BME280;3021;51.000;6.980;2023-02-17T17:33:51;67713.97;;;12.70;100.00
5988;BME280;3021;51.000;6.980;2023-02-17T17:38:48;67717.59;;;12.75;100.00
5988;BME280;3021;51.000;6.980;2023-02-17T17:41:14;67718.03;;;12.73;100.00
5988;BME280;3021;51.000;6.980;2023-02-17T17:43:40;67719.19;;;12.74;100.00